.
WxDataArchive / Data Records for 2011-02-01
2011-01-31 February 2011 2011-02-02

Data Records for Tuesday, 01 February 2011

Time	Temp	Chill	HIndex	Humid	Dewpt	 Wind 	HiWind	WindDir	Rain 	Barom 
-----	----	-----	------	-----	-----	------	------	-------	-----	----- 
00:00	14.0	7.3	14.0	86	10.6	4	10	90	0.00	30.186 
00:05	14.0	14.0	14.0	86	10.6	2	10	90	0.00	30.186 
00:10	14.0	14.0	14.0	86	10.6	2	7	90	0.00	30.186 
00:15	14.0	14.0	14.0	86	10.6	2	7	90	0.00	30.191 
00:20	14.0	14.0	14.0	86	10.6	2	7	90	0.00	30.191 
00:25	14.0	14.0	14.0	86	10.6	1	6	112	0.00	30.191 
00:30	14.0	14.0	14.0	86	10.6	1	5	112	0.00	30.193 
00:35	14.0	14.0	14.0	86	10.6	2	6	112	0.00	30.193 
00:40	13.8	13.8	13.8	86	10.4	2	7	112	0.00	30.193 
00:45	13.8	13.8	13.8	86	10.4	3	7	112	0.00	30.196 
00:50	13.8	13.8	13.8	86	10.4	0	4	112	0.00	30.196 
00:55	13.8	13.8	13.8	86	10.4	1	2	22	0.00	30.196 
01:00	13.6	13.6	13.6	86	10.2	1	4	68	0.00	30.193 
01:05	13.6	13.6	13.6	86	10.2	1	5	90	0.00	30.193 
01:10	13.6	13.6	13.6	86	10.2	2	11	68	0.00	30.193 
01:15	13.6	13.6	13.6	86	10.2	2	12	90	0.00	30.177 
01:20	13.6	13.6	13.6	86	10.2	1	4	22	0.00	30.177 
01:25	13.8	13.8	13.8	86	10.4	1	4	45	0.00	30.177 
01:30	13.8	13.8	13.8	86	10.4	2	9	90	0.00	30.163 
01:35	13.8	13.8	13.8	86	10.4	2	10	90	0.00	30.163 
01:40	13.8	13.8	13.8	86	10.4	1	5	112	0.00	30.163 
01:45	13.8	13.8	13.8	86	10.4	1	3	90	0.00	30.180 
01:50	13.8	13.8	13.8	86	10.4	1	4	90	0.00	30.180 
01:55	13.8	13.8	13.8	86	10.4	1	5	90	0.00	30.180 
02:00	14.0	14.0	14.0	86	10.6	2	8	45	0.00	30.184 
02:05	14.0	14.0	14.0	86	10.6	1	5	112	0.00	30.184 
02:10	14.0	14.0	14.0	86	10.6	1	4	90	0.00	30.184 
02:15	14.0	14.0	14.0	86	10.6	1	4	45	0.00	30.195 
02:20	14.0	14.0	14.0	86	10.6	1	4	112	0.00	30.195 
02:25	14.0	14.0	14.0	86	10.6	1	6	90	0.00	30.195 
02:30	14.0	14.0	14.0	86	10.6	1	6	90	0.00	30.189 
02:35	14.0	14.0	14.0	86	10.6	2	9	112	0.00	30.189 
02:40	14.1	14.1	14.1	86	10.7	2	5	112	0.00	30.189 
02:45	14.1	14.1	14.1	86	10.7	2	6	112	0.00	30.186 
02:50	14.1	14.1	14.1	86	10.7	2	7	112	0.00	30.186 
02:55	14.3	14.3	14.3	86	10.9	1	6	90	0.00	30.186 
03:00	14.3	14.3	14.3	86	10.9	1	4	22	0.00	30.185 
03:05	14.3	14.3	14.3	86	10.9	2	4	112	0.00	30.185 
03:10	14.3	14.3	14.3	86	10.9	1	6	90	0.00	30.185 
03:15	14.3	14.3	14.3	85	10.6	2	5	90	0.00	30.195 
03:20	14.3	14.3	14.3	85	10.6	1	4	90	0.00	30.195 
03:25	14.3	14.3	14.3	85	10.6	1	5	90	0.00	30.195 
03:30	14.3	14.3	14.3	85	10.6	2	9	338	0.00	30.195 
03:35	14.3	14.3	14.3	85	10.6	2	9	68	0.00	30.195 
03:40	14.3	14.3	14.3	85	10.6	2	5	45	0.00	30.195 
03:45	14.3	14.3	14.3	85	10.6	1	6	112	0.00	30.192 
03:50	14.3	14.3	14.3	85	10.6	2	9	90	0.00	30.192 
03:55	14.4	14.4	14.4	85	10.7	1	6	90	0.00	30.192 
04:00	14.4	14.4	14.4	85	10.7	1	4	90	0.00	30.200 
04:05	14.4	14.4	14.4	85	10.7	1	6	112	0.00	30.200 
04:10	14.4	14.4	14.4	85	10.7	1	6	112	0.00	30.200 
04:15	14.6	14.6	14.6	85	10.9	1	4	135	0.00	30.208 
04:20	14.6	14.6	14.6	85	10.9	1	4	22	0.00	30.208 
04:25	14.6	14.6	14.6	85	10.9	2	7	90	0.00	30.208 
04:30	14.6	14.6	14.6	86	11.2	2	9	90	0.00	30.194 
04:35	14.6	14.6	14.6	86	11.2	2	4	112	0.00	30.194 
04:40	14.6	14.6	14.6	86	11.2	1	9	90	0.00	30.194 
04:45	14.6	14.6	14.6	86	11.2	1	4	112	0.00	30.205 
04:50	14.6	14.6	14.6	86	11.2	2	4	112	0.00	30.205 
04:55	14.6	14.6	14.6	86	11.2	2	6	112	0.00	30.205 
05:00	14.6	14.6	14.6	86	11.2	2	6	45	0.00	30.198 
05:05	14.6	14.6	14.6	86	11.2	2	7	90	0.00	30.198 
05:10	14.6	14.6	14.6	86	11.2	2	7	90	0.00	30.198 
05:15	14.6	14.6	14.6	86	11.2	1	5	45	0.00	30.202 
05:20	14.6	14.6	14.6	86	11.2	1	3	45	0.00	30.202 
05:25	14.6	14.6	14.6	86	11.2	2	6	45	0.00	30.202 
05:30	14.6	14.6	14.6	86	11.2	1	5	112	0.00	30.210 
05:35	14.6	14.6	14.6	86	11.2	1	4	112	0.00	30.210 
05:40	14.6	14.6	14.6	86	11.2	2	7	90	0.00	30.210 
05:45	14.6	14.6	14.6	86	11.2	2	9	112	0.00	30.197 
05:50	14.6	14.6	14.6	86	11.2	2	7	112	0.00	30.197 
05:55	14.6	14.6	14.6	86	11.2	1	5	68	0.00	30.197 
06:00	14.6	14.6	14.6	86	11.2	1	5	112	0.00	30.215 
06:05	14.6	14.6	14.6	86	11.2	2	6	112	0.00	30.215 
06:10	14.6	14.6	14.6	86	11.2	1	5	112	0.00	30.215 
06:15	14.6	14.6	14.6	86	11.2	1	4	112	0.00	30.213 
06:20	14.6	14.6	14.6	86	11.2	2	7	112	0.00	30.213 
06:25	14.6	14.6	14.6	86	11.2	2	7	112	0.00	30.213 
06:30	14.8	14.8	14.8	86	11.4	3	6	90	0.00	30.215 
06:35	14.8	14.8	14.8	86	11.4	2	7	112	0.00	30.215 
06:40	14.8	14.8	14.8	86	11.4	2	7	90	0.00	30.215 
06:45	14.8	14.8	14.8	86	11.4	2	6	90	0.00	30.213 
06:50	14.8	14.8	14.8	86	11.4	2	7	112	0.00	30.213 
06:55	14.8	14.8	14.8	86	11.4	1	5	112	0.00	30.213 
07:00	14.8	14.8	14.8	86	11.4	2	6	112	0.00	30.219 
07:05	14.8	14.8	14.8	86	11.4	2	5	90	0.00	30.219 
07:10	14.8	14.8	14.8	86	11.4	2	9	112	0.00	30.219 
07:15	14.8	14.8	14.8	86	11.4	1	3	90	0.00	30.218 
07:20	14.9	14.9	14.9	86	11.5	2	5	90	0.00	30.218 
07:25	14.9	14.9	14.9	86	11.5	1	6	112	0.00	30.218 
07:30	14.9	14.9	14.9	86	11.5	1	6	135	0.00	30.215 
07:35	14.9	14.9	14.9	86	11.5	2	6	112	0.00	30.215 
07:40	14.9	14.9	14.9	86	11.5	1	4	45	0.00	30.215 
07:45	15.1	15.1	15.1	86	11.7	1	5	45	0.00	30.227 
07:50	15.1	15.1	15.1	86	11.7	2	5	90	0.00	30.227 
07:55	15.1	15.1	15.1	86	11.7	1	5	112	0.00	30.227 
08:00	15.1	15.1	15.1	86	11.7	1	6	135	0.00	30.203 
08:05	15.2	15.2	15.2	86	11.8	2	10	112	0.00	30.203 
08:10	15.2	15.2	15.2	86	11.8	2	9	90	0.00	30.203 
08:15	15.2	15.2	15.2	86	11.8	1	6	45	0.00	30.219 
08:20	15.4	15.4	15.4	86	12.0	1	7	112	0.00	30.219 
08:25	15.4	15.4	15.4	86	12.0	1	7	90	0.00	30.219 
08:30	15.6	15.6	15.6	86	12.2	2	7	112	0.00	30.219 
08:35	15.6	15.6	15.6	85	11.9	2	11	112	0.00	30.219 
08:40	15.7	15.7	15.7	85	12.0	2	8	90	0.00	30.219 
08:45	15.7	15.7	15.7	85	12.0	2	5	90	0.00	30.219 
08:50	15.9	15.9	15.9	85	12.2	2	6	112	0.00	30.219 
08:55	16.1	16.1	16.1	86	12.7	3	11	112	0.00	30.219 
09:00	16.1	16.1	16.1	85	12.4	3	11	112	0.00	30.229 
09:05	16.2	16.2	16.2	85	12.5	1	9	112	0.00	30.229 
09:10	16.2	16.2	16.2	85	12.5	3	11	90	0.00	30.229 
09:15	16.4	16.4	16.4	85	12.7	3	7	90	0.00	30.229 
09:20	16.4	16.4	16.4	85	12.7	3	9	112	0.00	30.229 
09:25	16.4	16.4	16.4	85	12.7	3	8	90	0.00	30.229 
09:30	16.4	16.4	16.4	85	12.7	2	7	90	0.00	30.219 
09:35	16.5	10.2	16.5	85	12.8	4	11	90	0.00	30.219 
09:40	16.5	16.5	16.5	85	12.8	2	7	112	0.00	30.219 
09:45	16.5	16.5	16.5	85	12.8	2	8	112	0.00	30.226 
09:50	16.7	16.7	16.7	85	13.0	2	9	90	0.00	30.226 
09:55	16.7	16.7	16.7	85	13.0	2	6	68	0.00	30.226 
10:00	16.9	16.9	16.9	85	13.2	2	7	22	0.00	30.219 
10:05	16.9	10.6	16.9	85	13.2	4	12	112	0.00	30.219 
10:10	16.9	16.9	16.9	85	13.2	2	6	112	0.00	30.219 
10:15	17.0	17.0	17.0	85	13.3	2	6	112	0.00	30.217 
10:20	17.2	17.2	17.2	85	13.5	2	5	45	0.00	30.217 
10:25	17.2	17.2	17.2	85	13.5	3	11	90	0.00	30.217 
10:30	17.3	17.3	17.3	85	13.6	1	5	90	0.00	30.227 
10:35	17.5	17.5	17.5	85	13.8	2	6	90	0.00	30.227 
10:40	17.5	10.0	17.5	85	13.8	5	14	112	0.00	30.227 
10:45	17.5	17.5	17.5	85	13.8	3	10	90	0.00	30.222 
10:50	17.7	17.7	17.7	85	14.0	2	7	90	0.00	30.222 
10:55	17.8	17.8	17.8	84	13.8	3	11	90	0.00	30.222 
11:00	18.0	18.0	18.0	84	14.0	3	10	112	0.00	30.213 
11:05	18.1	18.1	18.1	84	14.1	2	9	68	0.00	30.213 
11:10	18.1	18.1	18.1	84	14.1	3	11	22	0.00	30.213 
11:15	18.1	18.1	18.1	84	14.1	3	12	68	0.00	30.207 
11:20	18.1	12.0	18.1	84	14.1	4	11	90	0.00	30.207 
11:25	18.1	18.1	18.1	84	14.1	3	11	90	0.00	30.207 
11:30	18.1	18.1	18.1	83	13.8	3	8	45	0.00	30.203 
11:35	18.1	12.0	18.1	83	13.8	4	12	90	0.00	30.203 
11:40	18.3	18.3	18.3	83	14.0	2	5	45	0.00	30.203 
11:45	18.4	18.4	18.4	83	14.1	3	11	22	0.00	30.201 
11:50	18.3	18.3	18.3	83	14.0	3	7	90	0.00	30.201 
11:55	18.3	18.3	18.3	82	13.7	3	9	90	0.00	30.201 
12:00	18.3	18.3	18.3	83	14.0	3	11	112	0.00	30.197 
12:05	18.1	12.0	18.1	83	13.8	4	13	90	0.00	30.197 
12:10	18.1	12.0	18.1	83	13.8	4	14	90	0.00	30.197 
12:15	18.1	12.0	18.1	83	13.8	4	12	90	0.00	30.167 
12:20	18.3	12.3	18.3	83	14.0	4	9	90	0.00	30.167 
12:25	18.4	18.4	18.4	83	14.1	3	8	22	0.00	30.167 
12:30	18.4	18.4	18.4	82	13.8	3	14	22	0.00	30.175 
12:35	18.6	18.6	18.6	82	14.0	3	9	22	0.00	30.175 
12:40	18.8	18.8	18.8	82	14.2	3	7	22	0.00	30.175 
12:45	18.9	18.9	18.9	82	14.3	3	10	68	0.00	30.165 
12:50	18.9	11.7	18.9	81	14.1	5	12	90	0.00	30.165 
12:55	18.9	12.9	18.9	81	14.1	4	14	112	0.00	30.165 
13:00	18.9	12.9	18.9	81	14.1	4	12	90	0.00	30.168 
13:05	18.9	18.9	18.9	81	14.1	3	9	22	0.00	30.168 
13:10	18.9	12.9	18.9	81	14.1	4	13	112	0.00	30.168 
13:15	18.9	12.9	18.9	81	14.1	4	14	90	0.00	30.164 
13:20	18.9	12.9	18.9	80	13.8	4	10	112	0.00	30.164 
13:25	19.1	19.1	19.1	80	14.0	2	7	0	0.00	30.164 
13:30	19.1	13.2	19.1	80	14.0	4	12	112	0.00	30.165 
13:35	18.9	12.9	18.9	80	13.8	4	18	112	0.00	30.165 
13:40	18.9	18.9	18.9	80	13.8	3	9	112	0.00	30.165 
13:45	18.9	11.7	18.9	80	13.8	5	14	112	0.00	30.164 
13:50	18.9	12.9	18.9	80	13.8	4	13	112	0.00	30.164 
13:55	18.9	11.7	18.9	80	13.8	5	17	112	0.00	30.164 
14:00	18.9	11.7	18.9	80	13.8	5	16	90	0.00	30.147 
14:05	19.1	19.1	19.1	80	14.0	3	9	22	0.00	30.147 
14:10	19.1	19.1	19.1	81	14.2	3	7	45	0.00	30.147 
14:15	19.2	13.3	19.2	80	14.1	4	15	112	0.00	30.135 
14:20	19.2	19.2	19.2	81	14.3	2	7	45	0.00	30.135 
14:25	19.2	13.3	19.2	80	14.1	4	10	68	0.00	30.135 
14:30	19.4	19.4	19.4	81	14.5	3	12	112	0.00	30.135 
14:35	19.4	19.4	19.4	81	14.5	2	8	22	0.00	30.135 
14:40	19.4	19.4	19.4	81	14.5	3	11	90	0.00	30.135 
14:45	19.4	13.5	19.4	81	14.5	4	14	68	0.00	30.131 
14:50	19.4	13.5	19.4	81	14.5	4	12	90	0.00	30.131 
14:55	19.4	13.5	19.4	81	14.5	4	18	22	0.00	30.131 
15:00	19.4	19.4	19.4	81	14.5	3	11	22	0.00	30.121 
15:05	19.4	13.5	19.4	82	14.8	4	11	90	0.00	30.121 
15:10	19.4	19.4	19.4	83	15.1	3	12	112	0.00	30.121 
15:15	19.4	13.5	19.4	83	15.1	4	12	90	0.00	30.117 
15:20	19.2	13.3	19.2	84	15.2	4	11	112	0.00	30.117 
15:25	19.4	19.4	19.4	84	15.4	3	10	90	0.00	30.117 
15:30	19.4	19.4	19.4	84	15.4	3	9	90	0.00	30.119 
15:35	19.4	19.4	19.4	83	15.1	3	11	112	0.00	30.119 
15:40	19.2	13.3	19.2	83	14.9	4	11	90	0.00	30.119 
15:45	19.1	13.2	19.1	83	14.8	4	15	112	0.00	30.100 
15:50	18.9	11.7	18.9	83	14.6	5	13	112	0.00	30.100 
15:55	18.9	12.9	18.9	84	14.9	4	11	90	0.00	30.100 
16:00	18.8	11.6	18.8	84	14.8	5	19	112	0.00	30.100 
16:05	18.6	12.6	18.6	85	14.9	4	18	45	0.00	30.100 
16:10	18.6	12.6	18.6	86	15.1	4	12	90	0.00	30.100 
16:15	18.6	11.3	18.6	86	15.1	5	10	90	0.00	30.098 
16:20	18.4	12.4	18.4	87	15.2	4	11	90	0.00	30.098 
16:25	18.4	12.4	18.4	87	15.2	4	12	90	0.00	30.098 
16:30	18.4	12.4	18.4	87	15.2	4	12	90	0.00	30.102 
16:35	18.4	12.4	18.4	87	15.2	4	18	90	0.00	30.102 
16:40	18.3	12.3	18.3	88	15.4	4	11	90	0.00	30.102 
16:45	18.1	10.7	18.1	88	15.2	5	16	90	0.00	30.062 
16:50	18.1	12.0	18.1	88	15.2	4	12	90	0.00	30.062 
16:55	18.1	10.7	18.1	88	15.2	5	17	112	0.00	30.062 
17:00	18.3	12.3	18.3	88	15.4	4	13	112	0.00	30.075 
17:05	18.3	18.3	18.3	88	15.4	3	13	112	0.00	30.075 
17:10	18.3	12.3	18.3	89	15.6	4	12	90	0.00	30.075 
17:15	18.3	11.0	18.3	89	15.6	5	16	90	0.00	30.060 
17:20	18.3	12.3	18.3	89	15.6	4	12	90	0.00	30.060 
17:25	18.4	12.4	18.4	89	15.7	4	13	90	0.00	30.060 
17:30	18.4	11.1	18.4	89	15.7	5	13	112	0.00	30.039 
17:35	18.4	12.4	18.4	89	15.7	4	16	90	0.00	30.039 
17:40	18.4	11.1	18.4	89	15.7	5	13	90	0.00	30.039 
17:45	18.4	11.1	18.4	89	15.7	5	12	112	0.00	30.026 
17:50	18.4	11.1	18.4	89	15.7	5	13	90	0.00	30.026 
17:55	18.4	12.4	18.4	89	15.7	4	11	22	0.00	30.026 
18:00	18.4	11.1	18.4	89	15.7	5	17	112	0.00	30.008 
18:05	18.4	10.0	18.4	89	15.7	6	15	112	0.00	30.008 
18:10	18.4	12.4	18.4	89	15.7	4	14	112	0.00	30.008 
18:15	18.4	12.4	18.4	89	15.7	4	15	112	0.00	29.992 
18:20	18.3	12.3	18.3	89	15.6	4	15	22	0.00	29.992 
18:25	18.3	11.0	18.3	89	15.6	5	17	90	0.00	29.992 
18:30	18.3	8.2	18.3	91	16.1	8	18	90	0.00	29.997 
18:35	18.3	9.9	18.3	89	15.6	6	18	90	0.00	29.997 
18:40	18.3	9.0	18.3	89	15.6	7	18	112	0.00	29.997 
18:45	18.1	12.0	18.1	89	15.4	4	14	112	0.00	29.974 
18:50	18.1	9.7	18.1	89	15.4	6	14	112	0.00	29.974 
18:55	18.1	10.7	18.1	89	15.4	5	11	22	0.00	29.974 
19:00	18.1	9.7	18.1	89	15.4	6	16	112	0.00	29.949 
19:05	18.1	8.7	18.1	89	15.4	7	14	90	0.00	29.949 
19:10	18.1	7.2	18.1	88	15.2	9	18	112	0.00	29.949 
19:15	18.1	9.7	18.1	88	15.2	6	14	112	0.00	29.963 
19:20	18.1	8.7	18.1	88	15.2	7	20	112	0.00	29.963 
19:25	18.1	9.7	18.1	88	15.2	6	17	90	0.00	29.963 
19:30	18.1	9.7	18.1	88	15.2	6	16	90	0.00	29.961 
19:35	18.1	10.7	18.1	88	15.2	5	13	112	0.00	29.961 
19:40	18.0	9.6	18.0	88	15.1	6	13	112	0.00	29.961 
19:45	18.0	7.8	18.0	88	15.1	8	19	112	0.00	29.945 
19:50	18.0	9.6	18.0	88	15.1	6	22	112	0.00	29.945 
19:55	18.0	8.6	18.0	89	15.3	7	17	112	0.00	29.945 
20:00	18.0	8.6	18.0	89	15.3	7	14	90	0.00	29.946 
20:05	17.8	10.4	17.8	89	15.1	5	18	112	0.00	29.946 
20:10	17.8	7.6	17.8	89	15.1	8	15	112	0.00	29.946 
20:15	17.8	7.6	17.8	89	15.1	8	19	112	0.00	29.925 
20:20	17.8	9.3	17.8	89	15.1	6	17	112	0.00	29.925 
20:25	17.7	7.4	17.7	89	15.0	8	19	90	0.00	29.925 
20:30	17.7	9.2	17.7	89	15.0	6	14	90	0.00	29.889 
20:35	17.7	9.2	17.7	89	15.0	6	17	90	0.00	29.889 
20:40	17.7	9.2	17.7	89	15.0	6	16	112	0.00	29.889 
20:45	17.7	10.3	17.7	89	15.0	5	17	112	0.00	29.918 
20:50	17.7	17.7	17.7	89	15.0	3	9	90	0.00	29.918 
20:55	17.7	11.6	17.7	89	15.0	4	13	90	0.00	29.918 
21:00	17.5	10.0	17.5	89	14.8	5	18	112	0.00	29.878 
21:05	17.5	8.0	17.5	89	14.8	7	15	112	0.00	29.878 
21:10	17.3	6.2	17.3	89	14.6	9	22	112	0.00	29.878 
21:15	17.3	6.2	17.3	89	14.6	9	21	112	0.00	29.784 
21:20	17.2	6.1	17.2	89	14.5	9	23	112	0.00	29.784 
21:25	17.0	6.6	17.0	89	14.3	8	23	112	0.00	29.784 
21:30	17.0	5.8	17.0	89	14.3	9	21	112	0.00	29.758 
21:35	17.0	4.5	17.0	89	14.3	11	21	112	0.00	29.758 
21:40	17.0	6.6	17.0	89	14.3	8	21	90	0.00	29.758 
21:45	17.2	6.8	17.2	89	14.5	8	19	90	0.00	29.740 
21:50	17.2	6.1	17.2	89	14.5	9	31	112	0.00	29.740 
21:55	17.3	7.8	17.3	89	14.6	7	18	112	0.00	29.740 
22:00	17.3	7.8	17.3	89	14.6	7	21	112	0.00	29.753 
22:05	17.5	8.0	17.5	89	14.8	7	24	112	0.00	29.753 
22:10	17.7	8.3	17.7	89	15.0	7	19	112	0.00	29.753 
22:15	17.7	6.7	17.7	89	15.0	9	24	90	0.00	29.703 
22:20	17.8	7.6	17.8	89	15.1	8	28	112	0.00	29.703 
22:25	17.8	6.8	17.8	90	15.4	9	17	112	0.00	29.703 
22:30	17.8	7.6	17.8	89	15.1	8	20	112	0.00	29.673 
22:35	18.0	6.4	18.0	90	15.6	10	21	112	0.00	29.673 
22:40	18.1	7.9	18.1	90	15.7	8	20	112	0.00	29.673 
22:45	18.1	6.5	18.1	90	15.7	10	20	112	0.00	29.676 
22:50	18.3	6.7	18.3	90	15.9	10	24	112	0.00	29.676 
22:55	18.4	7.5	18.4	90	16.0	9	24	112	0.00	29.676 
23:00	18.4	6.9	18.4	90	16.0	10	24	90	0.00	29.662 
23:05	18.6	7.8	18.6	90	16.2	9	18	112	0.00	29.662 
23:10	18.6	7.1	18.6	90	16.2	10	20	112	0.00	29.662 
23:15	18.8	7.4	18.8	90	16.4	10	22	90	0.00	29.647 
23:20	18.9	8.2	18.9	90	16.5	9	24	112	0.00	29.647 
23:25	18.9	9.7	18.9	90	16.5	7	20	90	0.00	29.647 
23:30	19.1	9.1	19.1	90	16.7	8	18	112	0.00	29.640 
23:35	19.1	10.9	19.1	90	16.7	6	15	90	0.00	29.640 
23:40	19.2	10.1	19.2	90	16.8	7	17	112	0.00	29.640 
23:45	19.4	11.2	19.4	91	17.2	6	17	90	0.00	29.622 
23:50	19.5	8.9	19.5	91	17.3	9	18	90	0.00	29.622 
23:55	19.7	9.1	19.7	91	17.5	9	18	112	0.00	29.622 

CoCoRaHS
IN-AL-39
A2 Web Hosting
Creative Commons License
GoDaddy
search engine by freefind advanced

loaded 2018-11-20 08:24:17 • last modified 2010-11-18 10:43:29
Privacy PolicyDisclaimer
• wx.awcolley.com is powered by PmWiki v.2002016 •
• all content (unless otherwise noted) © 2018 A W Colley